createdAt,value
2022-08-19T00:01:30.766Z,99480.00
2022-08-19T00:03:59.544Z,99476.94
2022-08-19T00:06:27.599Z,99490.59
2022-08-19T00:08:54.273Z,99486.25
2022-08-19T00:11:25.564Z,99473.59
2022-08-19T00:13:53.363Z,99472.38
2022-08-19T00:16:20.509Z,99470.50
2022-08-19T00:18:53.044Z,99466.59
2022-08-19T00:21:19.511Z,99469.94
2022-08-19T00:23:45.990Z,99451.06
2022-08-19T00:26:12.468Z,99451.47
2022-08-19T00:28:39.027Z,99445.22
2022-08-19T00:31:06.908Z,99447.94
2022-08-19T00:33:33.735Z,99446.09
2022-08-19T00:36:07.355Z,99445.44
2022-08-19T00:38:37.964Z,99438.38
2022-08-19T00:41:06.114Z,99433.38
2022-08-19T00:43:33.252Z,99430.03
2022-08-19T00:46:00.093Z,99423.38
2022-08-19T00:48:26.630Z,99420.00
2022-08-19T00:50:55.196Z,99417.72
2022-08-19T00:53:24.325Z,99411.06
2022-08-19T00:55:52.547Z,99413.09
2022-08-19T00:58:21.523Z,99417.88
2022-08-19T01:00:48.560Z,99417.41
2022-08-19T01:03:19.181Z,99434.78
2022-08-19T01:05:46.769Z,99432.09
2022-08-19T01:08:15.188Z,99431.25
2022-08-19T01:10:45.293Z,99425.03
2022-08-19T01:13:12.204Z,99430.63
2022-08-19T01:15:46.326Z,99421.69
2022-08-19T01:18:15.116Z,99434.13
2022-08-19T01:20:43.571Z,99430.41
2022-08-19T01:23:10.360Z,99427.06
2022-08-19T01:25:42.048Z,99425.59
2022-08-19T01:28:11.083Z,99422.63
2022-08-19T01:30:38.157Z,99423.03
2022-08-19T01:33:06.847Z,99430.09
2022-08-19T01:35:33.580Z,99437.69
2022-08-19T01:38:03.347Z,99438.50
2022-08-19T01:40:32.557Z,99445.41
2022-08-19T01:42:59.366Z,99432.50
2022-08-19T01:45:27.561Z,99436.19
2022-08-19T01:48:01.724Z,99428.13
2022-08-19T01:50:30.259Z,99427.28
2022-08-19T01:53:02.279Z,99441.78
2022-08-19T01:55:33.514Z,99450.88
2022-08-19T01:58:02.166Z,99434.72
2022-08-19T02:00:31.027Z,99445.50
2022-08-19T02:02:57.689Z,99441.94
2022-08-19T02:05:24.545Z,99443.00
2022-08-19T02:07:51.229Z,99436.75
2022-08-19T02:10:22.095Z,99445.22
2022-08-19T02:12:50.276Z,99445.41
2022-08-19T02:15:17.760Z,99445.59
2022-08-19T02:17:44.365Z,99449.13
2022-08-19T02:20:11.601Z,99460.72
2022-08-19T02:22:38.074Z,99469.47
2022-08-19T02:25:05.789Z,99464.91
2022-08-19T02:27:33.102Z,99462.22
2022-08-19T02:29:59.774Z,99454.97
2022-08-19T02:32:26.329Z,99449.41
2022-08-19T02:34:52.786Z,99442.16
2022-08-19T02:37:37.851Z,99434.91
2022-08-19T02:40:04.791Z,99433.59
2022-08-19T02:42:39.072Z,99447.47
2022-08-19T02:45:06.457Z,99445.13
2022-08-19T02:47:33.424Z,99447.75
2022-08-19T02:50:01.813Z,99442.94
2022-08-19T02:52:28.314Z,99447.00
2022-08-19T02:54:57.756Z,99441.19
2022-08-19T02:57:24.901Z,99436.34
2022-08-19T02:59:51.569Z,99442.09
2022-08-19T03:02:18.058Z,99446.78
2022-08-19T03:04:44.516Z,99464.47
2022-08-19T03:07:14.579Z,99461.69
2022-08-19T03:09:41.140Z,99464.94
2022-08-19T03:12:07.724Z,99469.84
2022-08-19T03:14:34.880Z,99471.03
2022-08-19T03:17:01.400Z,99469.56
2022-08-19T03:19:28.444Z,99462.16
2022-08-19T03:21:56.298Z,99454.09
2022-08-19T03:24:22.782Z,99450.56
2022-08-19T03:26:52.270Z,99447.69
2022-08-19T03:29:30.166Z,99444.81
2022-08-19T03:32:01.884Z,99441.66
2022-08-19T03:34:30.103Z,99442.03
2022-08-19T03:36:58.659Z,99447.41
2022-08-19T03:39:26.593Z,99454.81
2022-08-19T03:42:38.841Z,99459.06
2022-08-19T03:44:40.826Z,99465.81
2022-08-19T03:47:07.724Z,99464.97
2022-08-19T03:49:36.036Z,99463.66
2022-08-19T03:52:05.913Z,99468.22
2022-08-19T03:54:32.405Z,99476.28
2022-08-19T03:56:58.981Z,99463.00
2022-08-19T03:59:29.742Z,99465.69
2022-08-19T04:01:58.172Z,99468.94
2022-08-19T04:04:25.443Z,99478.22
2022-08-19T04:06:56.029Z,99483.94
2022-08-19T04:09:22.558Z,99483.13
2022-08-19T04:11:57.366Z,99485.63
2022-08-19T04:14:27.222Z,99477.56
2022-08-19T04:16:54.041Z,99479.41
2022-08-19T04:19:21.380Z,99476.88
2022-08-19T04:21:52.136Z,99469.00
2022-08-19T04:24:19.309Z,99466.88
2022-08-19T04:26:46.540Z,99466.22
2022-08-19T04:29:16.562Z,99467.22
2022-08-19T04:31:45.225Z,99472.25
2022-08-19T04:34:14.017Z,99476.59
2022-08-19T04:36:42.396Z,99475.41
2022-08-19T04:39:14.695Z,99468.19
2022-08-19T04:41:59.922Z,99475.88
2022-08-19T04:44:26.801Z,99479.03
2022-08-19T04:46:53.689Z,99473.31
2022-08-19T04:49:23.003Z,99473.94
2022-08-19T04:51:50.680Z,99478.97
2022-08-19T04:54:25.880Z,99478.78
2022-08-19T04:57:06.944Z,99476.59
2022-08-19T04:59:34.450Z,99473.03
2022-08-19T05:02:00.920Z,99480.75
2022-08-19T05:04:27.363Z,99482.25
2022-08-19T05:07:00.005Z,99486.41
2022-08-19T05:09:27.959Z,99483.38
2022-08-19T05:11:54.804Z,99485.88
2022-08-19T05:14:21.946Z,99483.66
2022-08-19T05:16:48.672Z,99489.72
2022-08-19T05:19:33.807Z,99488.03
2022-08-19T05:22:19.683Z,99490.06
2022-08-19T05:25:09.361Z,99497.94
2022-08-19T05:27:33.363Z,99500.47
2022-08-19T05:30:00.087Z,99502.97
2022-08-19T05:32:27.136Z,99498.25
2022-08-19T05:34:53.648Z,99506.34
2022-08-19T05:37:20.392Z,99502.78
2022-08-19T05:39:51.269Z,99502.97
2022-08-19T05:42:18.062Z,99500.81
2022-08-19T05:44:45.341Z,99506.38
2022-08-19T05:47:13.312Z,99506.59
2022-08-19T05:49:39.861Z,99509.09
2022-08-19T05:52:09.322Z,99513.06
2022-08-19T05:54:40.952Z,99518.94
2022-08-19T05:57:07.997Z,99515.03
2022-08-19T05:59:36.385Z,99516.72
2022-08-19T06:02:07.548Z,99523.78
2022-08-19T06:04:34.656Z,99538.91
2022-08-19T06:07:02.428Z,99532.94
2022-08-19T06:09:39.545Z,99545.19
2022-08-19T06:12:06.225Z,99547.34
2022-08-19T06:14:35.449Z,99547.16
2022-08-19T06:17:07.508Z,99552.34
2022-08-19T06:19:34.544Z,99555.91
2022-08-19T06:22:07.548Z,99547.06
2022-08-19T06:24:34.073Z,99561.00
2022-08-19T06:27:02.009Z,99564.16
2022-08-19T06:29:30.673Z,99565.28
2022-08-19T06:31:59.012Z,99576.88
2022-08-19T06:34:26.713Z,99571.41
2022-08-19T06:36:53.365Z,99560.84
2022-08-19T06:39:25.856Z,99565.84
2022-08-19T06:41:56.884Z,99572.50
2022-08-19T06:44:27.687Z,99579.75
2022-08-19T06:46:56.133Z,99579.38
2022-08-19T06:49:23.755Z,99584.41
2022-08-19T06:51:50.888Z,99589.03
2022-08-19T06:54:20.127Z,99587.81
2022-08-19T06:56:47.303Z,99586.47
2022-08-19T06:59:17.353Z,99591.75
2022-08-19T07:01:47.851Z,99597.91
2022-08-19T07:04:22.837Z,99597.72
2022-08-19T07:06:55.047Z,99602.28
2022-08-19T07:09:22.322Z,99605.59
2022-08-19T07:11:51.090Z,99602.34
2022-08-19T07:14:20.001Z,99603.66
2022-08-19T07:16:49.433Z,99606.81
2022-08-19T07:19:16.506Z,99596.31
2022-08-19T07:21:47.058Z,99593.34
2022-08-19T07:24:13.640Z,99591.09
2022-08-19T07:26:42.897Z,99591.84
2022-08-19T07:29:10.286Z,99595.84
2022-08-19T07:31:37.801Z,99597.13
2022-08-19T07:34:09.717Z,99588.66
2022-08-19T07:36:39.168Z,99596.09
2022-08-19T07:39:10.152Z,99588.66
2022-08-19T07:41:37.921Z,99585.97
2022-08-19T07:44:06.256Z,99587.47
2022-08-19T07:46:34.152Z,99596.16
2022-08-19T07:49:01.377Z,99598.78
2022-08-19T07:51:36.363Z,99589.34
2022-08-19T07:54:04.239Z,99585.50
2022-08-19T07:56:30.717Z,99588.09
2022-08-19T08:01:29.010Z,99595.25
2022-08-19T08:04:15.753Z,99584.31
2022-08-19T08:07:01.121Z,99582.06
2022-08-19T08:09:31.364Z,99581.50
2022-08-19T08:12:32.883Z,99590.03
2022-08-19T08:14:56.600Z,99592.34
2022-08-19T08:17:31.049Z,99595.69
2022-08-19T08:20:12.871Z,99592.13
2022-08-19T08:23:02.772Z,99591.97
2022-08-19T08:25:32.350Z,99589.06
2022-08-19T08:28:01.070Z,99581.44
2022-08-19T08:30:31.282Z,99583.06
2022-08-19T08:32:59.759Z,99577.50
2022-08-19T08:35:26.276Z,99581.47
2022-08-19T08:37:54.781Z,99587.13
2022-08-19T08:40:28.729Z,99589.03
2022-08-19T08:45:41.184Z,99582.06
2022-08-19T08:48:24.137Z,99582.97
2022-08-19T08:50:53.493Z,99582.63
2022-08-19T08:53:29.845Z,99586.84
2022-08-19T08:56:01.254Z,99579.00
2022-08-19T08:58:43.098Z,99586.13
2022-08-19T09:01:11.757Z,99588.59
2022-08-19T09:03:40.974Z,99584.66
2022-08-19T09:06:18.243Z,99589.50
2022-08-19T09:09:04.786Z,99583.06
2022-08-19T09:11:42.555Z,99578.53
2022-08-19T09:14:49.168Z,99582.50
2022-08-19T09:17:11.303Z,99581.31
2022-08-19T09:19:50.888Z,99587.16
2022-08-19T09:22:19.978Z,99588.66
2022-08-19T09:24:55.773Z,99599.91
2022-08-19T09:27:42.155Z,99588.28
2022-08-19T09:30:14.692Z,99585.78
2022-08-19T09:32:43.545Z,99590.19
2022-08-19T09:35:11.267Z,99581.47
2022-08-19T09:37:38.659Z,99584.78
2022-08-19T09:40:08.000Z,99577.72
2022-08-19T09:42:35.860Z,99588.97
2022-08-19T09:45:05.323Z,99584.16
2022-08-19T09:47:39.009Z,99580.66
2022-08-19T09:50:09.688Z,99586.66
2022-08-19T09:52:37.384Z,99576.25
2022-08-19T09:55:09.531Z,99577.72
2022-08-19T09:57:36.146Z,99572.09
2022-08-19T10:00:06.143Z,99571.28
2022-08-19T10:02:34.540Z,99567.13
2022-08-19T10:05:23.203Z,99584.41
2022-08-19T10:07:53.577Z,99578.22
2022-08-19T10:10:20.778Z,99579.03
2022-08-19T10:12:48.767Z,99571.34
2022-08-19T10:15:16.709Z,99574.03
2022-08-19T10:17:47.588Z,99579.84
2022-08-19T10:20:14.805Z,99575.09
2022-08-19T10:22:42.231Z,99576.13
2022-08-19T10:25:09.000Z,99571.75
2022-08-19T10:27:35.722Z,99574.66
2022-08-19T10:30:02.264Z,99576.97
2022-08-19T10:32:34.470Z,99575.91
2022-08-19T10:35:01.696Z,99578.41
2022-08-19T10:37:29.049Z,99577.34
2022-08-19T10:39:58.055Z,99582.16
2022-08-19T10:42:24.611Z,99574.63
2022-08-19T10:44:51.968Z,99575.91
2022-08-19T10:47:25.458Z,99562.19
2022-08-19T10:50:12.491Z,99563.63
2022-08-19T10:52:48.980Z,99562.16
2022-08-19T10:55:39.869Z,99557.34
2022-08-19T10:58:12.257Z,99535.22
2022-08-19T11:00:38.741Z,99548.78
2022-08-19T11:03:05.207Z,99550.03
2022-08-19T11:05:31.695Z,99545.41
2022-08-19T11:08:07.227Z,99540.81
2022-08-19T11:10:50.544Z,99544.34
2022-08-19T11:13:17.189Z,99542.88
2022-08-19T11:15:43.995Z,99537.06
2022-08-19T11:18:13.401Z,99531.19
2022-08-19T11:20:40.377Z,99525.38
2022-08-19T11:23:07.374Z,99526.59
2022-08-19T11:25:34.225Z,99524.91
2022-08-19T11:28:00.712Z,99513.25
2022-08-19T11:30:28.769Z,99509.69
2022-08-19T11:32:55.225Z,99505.53
2022-08-19T11:35:24.057Z,99512.31
2022-08-19T11:37:50.466Z,99520.00
2022-08-19T11:40:17.027Z,99525.81
2022-08-19T11:42:56.413Z,99524.34
2022-08-19T11:45:28.803Z,99517.84
2022-08-19T11:47:55.833Z,99518.25
2022-08-19T11:50:24.211Z,99514.88
2022-08-19T11:52:50.695Z,99495.84
2022-08-19T11:55:17.217Z,99503.31
2022-08-19T11:57:44.512Z,99517.66
2022-08-19T12:00:13.728Z,99508.66
2022-08-19T12:02:40.853Z,99516.50
2022-08-19T12:05:12.009Z,99510.44
2022-08-19T12:07:39.219Z,99495.59
2022-08-19T12:10:05.989Z,99505.75
2022-08-19T12:12:32.712Z,99502.00
2022-08-19T12:14:59.367Z,99494.41
2022-08-19T12:17:28.652Z,99500.41
2022-08-19T12:19:55.419Z,99499.84
2022-08-19T12:22:22.230Z,99496.63
2022-08-19T12:24:51.606Z,99497.44
2022-08-19T12:27:20.326Z,99497.19
2022-08-19T12:30:06.543Z,99481.75
2022-08-19T12:32:33.432Z,99489.66
2022-08-19T12:34:59.926Z,99501.88
2022-08-19T12:37:26.373Z,99495.78
2022-08-19T12:39:53.033Z,99507.31
2022-08-19T12:42:19.636Z,99509.28
2022-08-19T12:44:46.144Z,99510.69
2022-08-19T12:47:14.764Z,99502.56
2022-08-19T12:49:53.407Z,99490.88
2022-08-19T12:52:23.170Z,99486.41
2022-08-19T12:54:53.797Z,99500.91
2022-08-19T12:57:22.157Z,99495.22
2022-08-19T12:59:54.492Z,99497.81
2022-08-19T13:02:21.029Z,99506.09
2022-08-19T13:04:47.527Z,99497.59
2022-08-19T13:07:13.967Z,99500.38
2022-08-19T13:09:43.363Z,99507.31
2022-08-19T13:12:13.747Z,99511.28
2022-08-19T13:14:41.331Z,99502.06
2022-08-19T13:17:09.320Z,99508.88
2022-08-19T13:19:37.721Z,99515.00
2022-08-19T13:22:04.206Z,99516.81
2022-08-19T13:24:33.516Z,99503.19
2022-08-19T13:27:01.484Z,99512.09
2022-08-19T13:29:46.773Z,99504.22
2022-08-19T13:32:32.076Z,99500.88
2022-08-19T13:34:58.580Z,99503.44
2022-08-19T13:37:43.291Z,99504.06
2022-08-19T13:40:24.867Z,99510.13
2022-08-19T13:42:53.297Z,99516.69
2022-08-19T13:45:23.577Z,99515.00
2022-08-19T13:47:54.715Z,99511.81
2022-08-19T13:50:28.365Z,99506.34
2022-08-19T13:52:56.979Z,99507.66
2022-08-19T13:55:24.992Z,99508.81
2022-08-19T13:58:02.702Z,99501.59
2022-08-19T14:00:33.811Z,99507.28
2022-08-19T14:03:00.530Z,99513.09
2022-08-19T14:05:28.462Z,99501.84
2022-08-19T14:07:55.671Z,99510.88
2022-08-19T14:10:22.546Z,99503.50
2022-08-19T14:12:49.028Z,99515.19
2022-08-19T14:15:16.420Z,99494.09
2022-08-19T14:17:45.248Z,99496.16
2022-08-19T14:20:17.577Z,99490.25
2022-08-19T14:22:45.813Z,99486.72
2022-08-19T14:25:16.113Z,99473.94
2022-08-19T14:27:46.085Z,99461.28
2022-08-19T14:30:15.494Z,99451.56
2022-08-19T14:32:44.252Z,99451.94
2022-08-19T14:35:13.277Z,99452.63
2022-08-19T14:37:45.275Z,99457.59
2022-08-19T14:40:14.861Z,99467.53
2022-08-19T14:42:41.919Z,99459.13
2022-08-19T14:45:09.409Z,99460.78
2022-08-19T14:47:35.924Z,99462.91
2022-08-19T14:50:08.816Z,99451.22
2022-08-19T14:52:37.220Z,99456.28
2022-08-19T14:55:07.537Z,99476.22
2022-08-19T14:57:34.233Z,99461.16
2022-08-19T15:00:00.791Z,99464.97
2022-08-19T15:02:35.033Z,99459.13
2022-08-19T15:05:02.572Z,99459.47
2022-08-19T15:07:30.143Z,99448.72
2022-08-19T15:09:57.197Z,99461.53
2022-08-19T15:12:24.090Z,99464.84
2022-08-19T15:14:51.470Z,99465.41
2022-08-19T15:17:25.781Z,99468.53
2022-08-19T15:20:10.107Z,99473.97
2022-08-19T15:22:36.733Z,99473.63
2022-08-19T15:25:05.120Z,99464.84
2022-08-19T15:27:32.802Z,99473.25
2022-08-19T15:30:01.420Z,99472.41
2022-08-19T15:32:28.909Z,99464.13
2022-08-19T15:34:55.485Z,99471.69
2022-08-19T15:37:25.092Z,99468.41
2022-08-19T15:39:51.702Z,99470.28
2022-08-19T15:42:30.007Z,99471.47
2022-08-19T15:45:00.537Z,99457.59
2022-08-19T15:47:34.436Z,99469.72
2022-08-19T15:50:10.469Z,99463.19
2022-08-19T15:52:37.549Z,99475.50
2022-08-19T15:55:16.099Z,99465.56
2022-08-19T15:58:21.831Z,99471.59
2022-08-19T16:01:20.446Z,99468.66
2022-08-19T16:04:13.947Z,99470.88
2022-08-19T16:06:50.412Z,99477.41
2022-08-19T16:09:18.063Z,99474.66
2022-08-19T16:11:46.040Z,99474.53
2022-08-19T16:14:14.305Z,99471.44
2022-08-19T16:16:40.890Z,99469.53
2022-08-19T16:19:10.414Z,99466.47
2022-08-19T16:21:41.838Z,99471.44
2022-08-19T16:24:12.847Z,99461.75
2022-08-19T16:26:40.880Z,99464.47
2022-08-19T16:29:12.080Z,99477.03
2022-08-19T16:31:40.559Z,99471.34
2022-08-19T16:34:07.030Z,99469.66
2022-08-19T16:36:33.602Z,99477.72
2022-08-19T16:39:00.952Z,99480.06
2022-08-19T16:41:27.934Z,99481.63
2022-08-19T16:43:55.146Z,99479.63
2022-08-19T16:46:23.175Z,99487.28
2022-08-19T16:48:53.839Z,99487.75
2022-08-19T16:51:21.401Z,99491.06
2022-08-19T16:53:47.914Z,99489.66
2022-08-19T16:56:14.987Z,99493.78
2022-08-19T16:58:42.605Z,99492.97
2022-08-19T17:01:10.508Z,99488.09
2022-08-19T17:03:39.712Z,99500.53
2022-08-19T17:06:18.457Z,99495.31
2022-08-19T17:08:48.816Z,99503.13
2022-08-19T17:11:18.639Z,99502.06
2022-08-19T17:13:47.871Z,99497.69
2022-08-19T17:16:15.974Z,99500.41
2022-08-19T17:18:42.428Z,99505.47
2022-08-19T17:21:08.881Z,99504.66
2022-08-19T17:23:43.031Z,99497.41
2022-08-19T17:26:18.009Z,99505.59
2022-08-19T17:28:50.652Z,99504.53
2022-08-19T17:31:18.968Z,99504.16
2022-08-19T17:33:48.232Z,99501.50
2022-08-19T17:36:23.427Z,99501.97
2022-08-19T17:38:50.799Z,99506.44
2022-08-19T17:41:17.388Z,99511.75
2022-08-19T17:43:44.472Z,99510.38
2022-08-19T17:46:18.148Z,99516.91
2022-08-19T17:48:52.271Z,99514.88
2022-08-19T17:51:26.601Z,99513.44
2022-08-19T17:53:54.123Z,99519.94
2022-08-19T17:56:21.548Z,99526.03
2022-08-19T17:58:59.816Z,99525.91
2022-08-19T18:01:26.935Z,99520.78
2022-08-19T18:03:58.569Z,99520.16
2022-08-19T18:06:25.012Z,99515.81
2022-08-19T18:08:51.712Z,99518.97
2022-08-19T18:11:18.159Z,99530.31
2022-08-19T18:13:44.592Z,99528.47
2022-08-19T18:16:13.242Z,99525.13
2022-08-19T18:18:41.431Z,99531.25
2022-08-19T18:21:08.978Z,99541.13
2022-08-19T18:23:44.429Z,99530.34
2022-08-19T18:26:12.719Z,99541.66
2022-08-19T18:28:39.766Z,99547.75
2022-08-19T18:31:16.924Z,99542.59
2022-08-19T18:33:44.870Z,99544.56
2022-08-19T18:36:12.011Z,99545.47
2022-08-19T18:38:57.296Z,99554.06
2022-08-19T18:41:42.978Z,99552.22
2022-08-19T18:44:28.474Z,99554.94
2022-08-19T18:47:13.835Z,99564.44
2022-08-19T18:49:40.486Z,99567.81
2022-08-19T18:52:07.468Z,99565.75
2022-08-19T18:54:34.333Z,99568.94
2022-08-19T18:57:00.828Z,99577.09
2022-08-19T18:59:29.955Z,99576.31
2022-08-19T19:01:57.657Z,99578.63
2022-08-19T19:04:27.315Z,99579.91
2022-08-19T19:06:53.861Z,99582.25
2022-08-19T19:09:22.565Z,99584.41
2022-08-19T19:11:52.061Z,99590.25
2022-08-19T19:14:47.574Z,99588.59
2022-08-19T19:17:12.623Z,99603.66
2022-08-19T19:19:42.540Z,99605.78
2022-08-19T19:22:12.911Z,99607.06
2022-08-19T19:24:40.622Z,99608.34
2022-08-19T19:27:10.086Z,99612.53
2022-08-19T19:29:37.205Z,99612.94
2022-08-19T19:32:05.317Z,99618.56
2022-08-19T19:34:31.891Z,99624.22
2022-08-19T19:36:58.611Z,99626.91
2022-08-19T19:39:45.247Z,99624.22
2022-08-19T19:42:19.927Z,99637.78
2022-08-19T19:44:48.635Z,99644.84
2022-08-19T19:47:15.566Z,99643.81
2022-08-19T19:50:03.878Z,99648.38
2022-08-19T19:52:28.497Z,99648.16
2022-08-19T19:54:56.650Z,99647.91
2022-08-19T19:57:26.646Z,99658.69
2022-08-19T19:59:54.271Z,99658.91
2022-08-19T20:02:21.792Z,99664.72
2022-08-19T20:04:48.796Z,99662.41
2022-08-19T20:07:15.304Z,99666.56
2022-08-19T20:09:58.909Z,99671.75
2022-08-19T20:12:26.047Z,99672.78
2022-08-19T20:14:52.561Z,99672.53
2022-08-19T20:17:20.398Z,99679.41
2022-08-19T20:19:47.707Z,99681.88
2022-08-19T20:22:14.368Z,99685.97
2022-08-19T20:24:44.727Z,99690.13
2022-08-19T20:27:11.421Z,99693.63
2022-08-19T20:29:41.609Z,99696.06
2022-08-19T20:32:12.308Z,99701.69
2022-08-19T20:34:40.145Z,99705.63
2022-08-19T20:37:09.042Z,99713.28
2022-08-19T20:39:35.629Z,99707.25
2022-08-19T20:42:02.201Z,99707.44
2022-08-19T20:44:28.677Z,99710.75
2022-08-19T20:46:57.649Z,99705.72
2022-08-19T20:49:27.766Z,99712.19
2022-08-19T20:51:56.396Z,99719.84
2022-08-19T20:54:24.026Z,99711.94
2022-08-19T20:56:51.623Z,99717.50
2022-08-19T20:59:19.981Z,99711.06
2022-08-19T21:01:47.446Z,99718.91
2022-08-19T21:04:14.000Z,99715.09
2022-08-19T21:06:42.235Z,99720.09
2022-08-19T21:09:11.879Z,99727.28
2022-08-19T21:11:38.974Z,99727.88
2022-08-19T21:14:05.803Z,99728.88
2022-08-19T21:16:33.724Z,99733.22
2022-08-19T21:19:01.563Z,99737.78
2022-08-19T21:21:28.427Z,99735.88
2022-08-19T21:23:54.900Z,99733.06
2022-08-19T21:26:29.296Z,99729.72
2022-08-19T21:28:55.761Z,99737.56
2022-08-19T21:31:22.632Z,99735.06
2022-08-19T21:33:49.072Z,99734.22
2022-08-19T21:36:15.589Z,99733.75
2022-08-19T21:38:42.035Z,99726.88
2022-08-19T21:41:08.491Z,99734.34
2022-08-19T21:43:36.785Z,99732.22
2022-08-19T21:46:03.678Z,99728.88
2022-08-19T21:48:30.216Z,99734.66
2022-08-19T21:50:59.929Z,99735.41
2022-08-19T21:53:26.900Z,99727.50
2022-08-19T21:56:00.889Z,99725.00
2022-08-19T21:58:28.221Z,99740.09
2022-08-19T22:01:05.501Z,99739.25
2022-08-19T22:03:32.450Z,99740.66
2022-08-19T22:05:58.907Z,99734.44
2022-08-19T22:08:27.159Z,99742.50
2022-08-19T22:10:53.665Z,99735.00
2022-08-19T22:13:20.462Z,99737.06
2022-08-19T22:15:48.387Z,99740.34
2022-08-19T22:18:15.605Z,99739.69
2022-08-19T22:20:43.584Z,99739.88
2022-08-19T22:23:10.065Z,99731.13
2022-08-19T22:25:40.317Z,99738.38
2022-08-19T22:28:11.040Z,99735.03
2022-08-19T22:30:41.635Z,99733.56
2022-08-19T22:33:13.376Z,99737.63
2022-08-19T22:35:41.349Z,99737.97
2022-08-19T22:38:08.669Z,99737.72
2022-08-19T22:40:39.439Z,99740.78
2022-08-19T22:43:11.943Z,99749.06
2022-08-19T22:45:38.817Z,99745.91
2022-08-19T22:48:07.852Z,99746.94
2022-08-19T22:50:34.660Z,99757.09
2022-08-19T22:53:02.669Z,99747.31
2022-08-19T22:55:31.040Z,99752.91
2022-08-19T22:57:58.841Z,99751.56
2022-08-19T23:00:27.374Z,99749.06
2022-08-19T23:02:55.514Z,99758.00
2022-08-19T23:05:24.475Z,99751.56
2022-08-19T23:07:52.682Z,99745.56
2022-08-19T23:10:26.855Z,99742.75
2022-08-19T23:12:57.613Z,99737.25
2022-08-19T23:15:29.129Z,99740.69
2022-08-19T23:17:58.536Z,99733.00
2022-08-19T23:20:27.318Z,99732.31
2022-08-19T23:22:54.591Z,99734.38
2022-08-19T23:25:24.735Z,99737.44
2022-08-19T23:28:09.796Z,99738.63
2022-08-19T23:30:40.200Z,99736.13
2022-08-19T23:33:21.458Z,99737.06
2022-08-19T23:35:49.057Z,99740.47
2022-08-19T23:38:15.580Z,99741.69
2022-08-19T23:40:42.192Z,99742.16
2022-08-19T23:43:09.786Z,99743.16
2022-08-19T23:45:40.749Z,99750.25
2022-08-19T23:48:17.994Z,99752.44
2022-08-19T23:50:45.149Z,99746.88
2022-08-19T23:53:13.369Z,99746.88
2022-08-19T23:55:42.528Z,99748.56
2022-08-19T23:58:09.047Z,99742.16
